Time;durP1;ratioP1;P1;durP2;ratioP2;P2;SDS_P1;SDS_P2;PMS_P1;PMS_P2;Temp;Humidity;BMP_temperature;BMP_pressure;BME280_temperature;BME280_humidity;BME280_pressure;Samples;Min_cycle;Max_cycle;Signal;HPM_P1;HPM_P2
2021/05/25 05:31:07;;;;;;;8.63;2.50;;;;;;;;;;5065879;23;20052;-66
2021/05/25 05:33:33;;;;;;;7.93;2.08;;;;;;;;;;4894931;29;20029;-74
2021/05/25 05:35:59;;;;;;;9.52;2.42;;;;;;;;;;4894811;29;20088;-66
2021/05/25 05:38:25;;;;;;;11.20;2.40;;;;;;;;;;4895078;29;20033;-67
2021/05/25 05:40:51;;;;;;;8.00;2.40;;;;;;;;;;4895315;29;20536;-70
2021/05/25 05:43:18;;;;;;;6.68;2.33;;;;;;;;;;4891682;29;20268;-65
2021/05/25 05:45:44;;;;;;;8.18;3.10;;;;;;;;;;4891652;29;20092;-69
2021/05/25 05:48:11;;;;;;;7.72;2.58;;;;;;;;;;4894298;29;20033;-66
2021/05/25 05:50:37;;;;;;;9.70;2.70;;;;;;;;;;4893311;29;20336;-68
2021/05/25 05:53:03;;;;;;;7.53;2.60;;;;;;;;;;4894434;29;20493;-69
2021/05/25 05:55:29;;;;;;;9.25;2.80;;;;;;;;;;4894905;29;20063;-69
2021/05/25 05:57:55;;;;;;;6.10;2.53;;;;;;;;;;4876487;29;20068;-67
2021/05/25 06:00:22;;;;;;;7.82;2.35;;;;;;;;;;4893875;29;20048;-67
2021/05/25 06:02:48;;;;;;;8.45;2.60;;;;;;;;;;4894027;29;20033;-67
2021/05/25 06:05:14;;;;;;;9.02;2.53;;;;;;;;;;4876529;29;20044;-65
2021/05/25 06:07:40;;;;;;;9.05;2.60;;;;;;;;;;4894455;29;20079;-66
2021/05/25 06:10:07;;;;;;;9.60;2.50;;;;;;;;;;4894726;29;20037;-69
2021/05/25 06:12:33;;;;;;;9.00;2.47;;;;;;;;;;4893827;29;20021;-69
2021/05/25 06:14:59;;;;;;;7.68;2.55;;;;;;;;;;4893564;29;20036;-68
2021/05/25 06:17:25;;;;;;;10.13;2.35;;;;;;;;;;4894726;29;20112;-68
2021/05/25 06:19:52;;;;;;;10.27;2.97;;;;;;;;;;4892034;29;20044;-65
2021/05/25 06:22:21;;;;;;;6.85;2.55;;;;;;;;;;4889515;29;20087;-66
2021/05/25 06:24:47;;;;;;;9.63;2.78;;;;;;;;;;4888612;29;20536;-69
2021/05/25 06:27:14;;;;;;;16.77;3.42;;;;;;;;;;4889262;29;20024;-66
2021/05/25 06:29:40;;;;;;;10.30;3.63;;;;;;;;;;4885519;29;20053;-68
2021/05/25 06:32:06;;;;;;;6.75;2.60;;;;;;;;;;4872311;29;20132;-66
2021/05/25 06:34:32;;;;;;;4.95;2.45;;;;;;;;;;4874461;29;20036;-68
2021/05/25 06:36:58;;;;;;;7.95;2.60;;;;;;;;;;4874573;29;20025;-67
2021/05/25 06:39:24;;;;;;;7.25;2.38;;;;;;;;;;4873803;29;20021;-68
2021/05/25 06:41:51;;;;;;;9.73;2.80;;;;;;;;;;4857510;29;20069;-68
2021/05/25 06:44:17;;;;;;;16.80;3.55;;;;;;;;;;4872832;29;20040;-65
2021/05/25 06:46:43;;;;;;;11.07;3.05;;;;;;;;;;4875114;29;20119;-67
2021/05/25 06:49:10;;;;;;;7.22;3.08;;;;;;;;;;4878063;29;20147;-67
2021/05/25 06:51:37;;;;;;;8.23;3.13;;;;;;;;;;4879138;29;20185;-71
2021/05/25 06:54:05;;;;;;;9.18;3.03;;;;;;;;;;4877817;29;20025;-67
2021/05/25 06:56:31;;;;;;;7.97;2.95;;;;;;;;;;4861895;29;20048;-66
2021/05/25 06:58:57;;;;;;;10.02;3.20;;;;;;;;;;4878465;29;20454;-68
2021/05/25 07:01:23;;;;;;;12.80;3.10;;;;;;;;;;4877933;29;20656;-67
2021/05/25 07:03:51;;;;;;;7.90;3.00;;;;;;;;;;4878432;29;20037;-69
2021/05/25 07:06:17;;;;;;;7.80;2.75;;;;;;;;;;4878616;29;20061;-68
2021/05/25 07:08:44;;;;;;;6.80;3.15;;;;;;;;;;4876977;29;20406;-65
2021/05/25 07:11:10;;;;;;;12.20;2.97;;;;;;;;;;4877726;29;20067;-67
2021/05/25 07:13:36;;;;;;;10.48;3.10;;;;;;;;;;4876331;29;20045;-66
2021/05/25 07:16:02;;;;;;;12.35;3.70;;;;;;;;;;4876246;29;20029;-67
2021/05/25 07:18:28;;;;;;;9.60;3.30;;;;;;;;;;4871477;29;20046;-68
2021/05/25 07:20:54;;;;;;;8.30;3.15;;;;;;;;;;4868133;29;20045;-65
2021/05/25 07:23:20;;;;;;;11.00;3.15;;;;;;;;;;4866544;29;20062;-69
2021/05/25 07:25:46;;;;;;;17.40;4.20;;;;;;;;;;4863056;29;20030;-71
2021/05/25 07:28:12;;;;;;;7.50;3.20;;;;;;;;;;4861824;29;20097;-70
2021/05/25 07:30:38;;;;;;;10.32;3.50;;;;;;;;;;4881534;29;20061;-67
2021/05/25 07:33:05;;;;;;;5.72;3.00;;;;;;;;;;4891480;29;20060;-65
2021/05/25 07:35:31;;;;;;;6.35;3.13;;;;;;;;;;4890652;29;20029;-71
2021/05/25 07:37:57;;;;;;;6.88;3.38;;;;;;;;;;4897294;29;20068;-71
2021/05/25 07:40:24;;;;;;;10.52;3.40;;;;;;;;;;4896775;29;20099;-71
2021/05/25 07:42:50;;;;;;;8.85;3.22;;;;;;;;;;4896703;29;20124;-70
2021/05/25 07:45:16;;;;;;;8.02;3.47;;;;;;;;;;4896569;29;20028;-70
2021/05/25 07:47:42;;;;;;;10.48;3.45;;;;;;;;;;4897033;29;20021;-69
2021/05/25 07:50:16;;;;;;;10.55;3.67;;;;;;;;;;4897047;29;20033;-68
2021/05/25 07:52:44;;;;;;;6.70;3.35;;;;;;;;;;4896416;29;20056;-68
2021/05/25 07:55:11;;;;;;;9.80;3.97;;;;;;;;;;4896728;29;20028;-69
2021/05/25 07:57:37;;;;;;;8.27;3.83;;;;;;;;;;4896204;29;20508;-74
2021/05/25 08:00:05;;;;;;;8.65;3.95;;;;;;;;;;4896426;29;20099;-67
2021/05/25 08:02:31;;;;;;;10.45;4.05;;;;;;;;;;4895565;29;20437;-67
2021/05/25 08:04:57;;;;;;;8.52;3.95;;;;;;;;;;4896802;29;20055;-65
2021/05/25 08:07:23;;;;;;;9.75;3.70;;;;;;;;;;4896322;29;20029;-69
2021/05/25 08:09:50;;;;;;;9.40;3.33;;;;;;;;;;4896003;29;20029;-70
2021/05/25 08:12:16;;;;;;;13.65;3.80;;;;;;;;;;4895553;29;20021;-69
2021/05/25 08:14:42;;;;;;;7.60;4.00;;;;;;;;;;4895600;29;20172;-68
2021/05/25 08:17:19;;;;;;;12.02;3.75;;;;;;;;;;4895829;29;20029;-69
2021/05/25 08:19:47;;;;;;;10.18;3.67;;;;;;;;;;4896183;29;20138;-72
2021/05/25 08:22:14;;;;;;;9.35;3.90;;;;;;;;;;4896013;29;20026;-70
2021/05/25 08:24:40;;;;;;;11.05;3.92;;;;;;;;;;4896097;29;20032;-69
2021/05/25 08:27:06;;;;;;;9.02;3.72;;;;;;;;;;4895926;29;20104;-67
2021/05/25 08:29:32;;;;;;;7.60;3.63;;;;;;;;;;4895753;29;20049;-69
2021/05/25 08:31:58;;;;;;;9.45;3.83;;;;;;;;;;4894097;29;20052;-69
2021/05/25 08:34:25;;;;;;;9.43;3.67;;;;;;;;;;4895053;29;20028;-68
2021/05/25 08:36:51;;;;;;;8.98;4.00;;;;;;;;;;4895791;29;20043;-68
2021/05/25 08:39:17;;;;;;;7.07;3.42;;;;;;;;;;4895599;29;20045;-69
2021/05/25 08:41:43;;;;;;;10.75;3.67;;;;;;;;;;4895815;29;20028;-65
2021/05/25 08:44:10;;;;;;;9.75;4.15;;;;;;;;;;4895499;29;20088;-71
2021/05/25 08:46:37;;;;;;;10.77;4.43;;;;;;;;;;4895317;29;20029;-69
2021/05/25 08:49:03;;;;;;;9.15;3.60;;;;;;;;;;4896118;29;20707;-69
2021/05/25 08:51:30;;;;;;;10.82;4.35;;;;;;;;;;4895508;29;20036;-68
2021/05/25 08:53:58;;;;;;;10.23;4.18;;;;;;;;;;4878075;29;20385;-66
2021/05/25 08:56:24;;;;;;;7.97;4.03;;;;;;;;;;4895688;29;20071;-67
2021/05/25 08:58:50;;;;;;;10.88;5.47;;;;;;;;;;4895638;29;20032;-66
2021/05/25 09:01:16;;;;;;;11.40;4.63;;;;;;;;;;4894866;29;20044;-69
2021/05/25 09:04:04;;;;;;;9.00;3.90;;;;;;;;;;4889629;29;20025;-70
2021/05/25 09:06:39;;;;;;;6.80;3.65;;;;;;;;;;4877032;29;20025;-70
2021/05/25 09:09:06;;;;;;;11.00;3.95;;;;;;;;;;4875515;29;20025;-67
2021/05/25 09:11:32;;;;;;;9.13;3.83;;;;;;;;;;4876679;29;20037;-67
2021/05/25 09:14:08;;;;;;;9.80;4.30;;;;;;;;;;4876292;29;20113;-66
2021/05/25 09:16:34;;;;;;;9.43;3.95;;;;;;;;;;4876841;29;20069;-67
2021/05/25 09:19:00;;;;;;;9.45;3.65;;;;;;;;;;4876562;29;20028;-67
2021/05/25 09:21:34;;;;;;;8.23;4.00;;;;;;;;;;4876468;29;20056;-68
2021/05/25 09:24:00;;;;;;;12.93;4.30;;;;;;;;;;4877107;29;20037;-68
2021/05/25 09:26:28;;;;;;;9.73;4.05;;;;;;;;;;4895611;29;20072;-69
2021/05/25 09:28:54;;;;;;;17.13;4.13;;;;;;;;;;4895002;29;20021;-67
2021/05/25 09:31:40;;;;;;;9.90;4.40;;;;;;;;;;4877750;29;20551;-73
2021/05/25 09:34:09;;;;;;;17.55;4.30;;;;;;;;;;4876243;29;20033;-70
2021/05/25 09:36:54;;;;;;;13.13;4.45;;;;;;;;;;4877177;29;20033;-67
2021/05/25 09:39:20;;;;;;;9.82;3.67;;;;;;;;;;4876487;29;20041;-69
2021/05/25 09:41:59;;;;;;;12.30;3.80;;;;;;;;;;4871810;29;20027;-78
2021/05/25 09:44:26;;;;;;;20.20;4.95;;;;;;;;;;4856687;29;20100;-72
2021/05/25 09:46:52;;;;;;;13.60;4.93;;;;;;;;;;4857882;29;20029;-74
2021/05/25 09:49:20;;;;;;;16.20;4.00;;;;;;;;;;4858321;29;20101;-73
2021/05/25 09:51:46;;;;;;;6.70;3.80;;;;;;;;;;4857194;29;20062;-72
2021/05/25 09:54:22;;;;;;;14.98;5.13;;;;;;;;;;4857883;29;20029;-66
2021/05/25 09:57:02;;;;;;;19.48;4.50;;;;;;;;;;4857603;29;20133;-68
2021/05/25 09:59:29;;;;;;;13.55;5.65;;;;;;;;;;4856116;29;20049;-69
2021/05/25 10:01:55;;;;;;;16.95;4.90;;;;;;;;;;4856625;29;20028;-68
2021/05/25 10:04:22;;;;;;;15.15;4.82;;;;;;;;;;4858039;29;20030;-70
2021/05/25 10:06:48;;;;;;;13.13;4.78;;;;;;;;;;4857948;29;20086;-76
2021/05/25 10:09:15;;;;;;;12.63;5.00;;;;;;;;;;4857947;29;20030;-67
2021/05/25 10:11:45;;;;;;;12.13;5.10;;;;;;;;;;4858046;29;20029;-73
2021/05/25 10:14:12;;;;;;;12.95;5.13;;;;;;;;;;4841540;29;20060;-73
2021/05/25 10:16:42;;;;;;;11.43;4.68;;;;;;;;;;4858344;29;20029;-63
2021/05/25 10:21:37;;;;;;;16.67;4.80;;;;;;;;;;4860890;29;20043;-73
2021/05/25 10:24:03;;;;;;;11.55;4.63;;;;;;;;;;4861184;29;20474;-70
2021/05/25 10:26:32;;;;;;;15.25;5.75;;;;;;;;;;4861778;29;20032;-68
2021/05/25 10:29:03;;;;;;;10.23;4.95;;;;;;;;;;4861392;29;20573;-76
2021/05/25 10:31:33;;;;;;;12.33;4.87;;;;;;;;;;4860926;29;20061;-71
2021/05/25 10:34:15;;;;;;;9.60;4.93;;;;;;;;;;4861198;29;20034;-72
2021/05/25 10:36:53;;;;;;;12.55;5.03;;;;;;;;;;4861275;29;20039;-75
2021/05/25 10:39:32;;;;;;;13.15;5.30;;;;;;;;;;4860619;29;20052;-78
2021/05/25 10:42:16;;;;;;;10.60;4.55;;;;;;;;;;4860837;29;20077;-79
2021/05/25 10:44:46;;;;;;;9.20;4.35;;;;;;;;;;4857671;29;20059;-75
2021/05/25 10:47:21;;;;;;;13.57;5.03;;;;;;;;;;4859557;29;20022;-73
2021/05/25 10:49:54;;;;;;;12.65;4.75;;;;;;;;;;4860656;29;20056;-72
2021/05/25 10:52:21;;;;;;;9.90;4.38;;;;;;;;;;4859939;29;20025;-72
2021/05/25 10:54:48;;;;;;;11.80;4.68;;;;;;;;;;4860553;29;20029;-67
2021/05/25 10:57:35;;;;;;;14.32;4.93;;;;;;;;;;4860654;29;20025;-74
2021/05/25 11:00:02;;;;;;;11.57;4.72;;;;;;;;;;4859950;29;20053;-74
2021/05/25 11:02:46;;;;;;;11.25;5.45;;;;;;;;;;4860725;29;20112;-69
2021/05/25 11:05:31;;;;;;;12.60;5.32;;;;;;;;;;4860228;29;20034;-69
2021/05/25 11:08:17;;;;;;;16.30;5.28;;;;;;;;;;4859468;29;20558;-70
2021/05/25 11:10:46;;;;;;;11.75;4.63;;;;;;;;;;4859855;29;20105;-74
2021/05/25 11:13:16;;;;;;;10.02;4.80;;;;;;;;;;4860002;29;20509;-66
2021/05/25 11:16:01;;;;;;;13.73;4.75;;;;;;;;;;4859493;29;20039;-68
2021/05/25 11:18:34;;;;;;;9.48;5.38;;;;;;;;;;4860812;29;20025;-74
2021/05/25 11:23:32;;;;;;;;;;;;;;;;;;4860382;29;20034;-72
2021/05/25 11:25:58;;;;;;;15.05;6.15;;;;;;;;;;4860464;29;19916;-72
2021/05/25 11:28:24;;;;;;;13.93;4.97;;;;;;;;;;4859906;29;20045;-65
2021/05/25 11:30:50;;;;;;;11.10;4.93;;;;;;;;;;4859540;29;20070;-72
2021/05/25 11:33:31;;;;;;;11.55;5.40;;;;;;;;;;4859196;29;20033;-74
2021/05/25 11:36:00;;;;;;;11.77;5.40;;;;;;;;;;4860359;29;20064;-69
2021/05/25 11:38:26;;;;;;;11.88;5.10;;;;;;;;;;4859702;29;20141;-67
2021/05/25 11:40:52;;;;;;;14.88;5.53;;;;;;;;;;4860341;29;20044;-72
2021/05/25 11:43:20;;;;;;;14.10;5.40;;;;;;;;;;4859806;29;20030;-69
2021/05/25 11:45:47;;;;;;;13.35;5.30;;;;;;;;;;4859101;29;20038;-72
2021/05/25 11:48:22;;;;;;;17.63;6.22;;;;;;;;;;4859465;29;20542;-72
2021/05/25 11:50:49;;;;;;;12.75;5.03;;;;;;;;;;4858974;29;20109;-66
2021/05/25 11:53:22;;;;;;;15.02;6.65;;;;;;;;;;4859470;29;20041;-70
2021/05/25 11:55:48;;;;;;;11.15;5.13;;;;;;;;;;4860158;29;20029;-72
2021/05/25 11:58:14;;;;;;;14.68;4.70;;;;;;;;;;4861596;29;20060;-64
2021/05/25 12:00:41;;;;;;;13.00;5.10;;;;;;;;;;4859073;29;20133;-68
2021/05/25 12:03:09;;;;;;;14.75;5.57;;;;;;;;;;4859128;29;20438;-70
2021/05/25 12:05:35;;;;;;;10.82;4.57;;;;;;;;;;4859853;29;20061;-67
2021/05/25 12:08:03;;;;;;;11.18;5.30;;;;;;;;;;4859768;29;20401;-72
2021/05/25 12:10:29;;;;;;;17.73;5.45;;;;;;;;;;4859354;29;20036;-68
2021/05/25 12:13:09;;;;;;;14.45;4.78;;;;;;;;;;4865462;29;20382;-65
2021/05/25 12:15:47;;;;;;;14.45;5.55;;;;;;;;;;4877165;29;20104;-65
2021/05/25 12:18:14;;;;;;;12.02;4.82;;;;;;;;;;4878237;29;20112;-66
2021/05/25 12:20:49;;;;;;;11.63;5.05;;;;;;;;;;4876966;29;20072;-72
2021/05/25 12:23:17;;;;;;;13.63;4.78;;;;;;;;;;4877836;29;20112;-64
2021/05/25 12:25:49;;;;;;;9.45;4.55;;;;;;;;;;4875910;29;20453;-69
2021/05/25 12:28:18;;;;;;;10.82;4.45;;;;;;;;;;4874110;29;20096;-64
2021/05/25 12:30:45;;;;;;;10.95;4.63;;;;;;;;;;4873729;29;20065;-73
2021/05/25 12:33:24;;;;;;;13.32;4.50;;;;;;;;;;4873212;29;20025;-68
2021/05/25 12:35:50;;;;;;;13.75;4.53;;;;;;;;;;4874165;29;20080;-67
2021/05/25 12:38:20;;;;;;;11.30;3.75;;;;;;;;;;4877846;29;20052;-63
2021/05/25 12:41:00;;;;;;;7.68;3.70;;;;;;;;;;4877428;29;20548;-64
2021/05/25 12:43:28;;;;;;;12.93;4.35;;;;;;;;;;4876659;29;20025;-71
2021/05/25 12:45:55;;;;;;;8.95;3.80;;;;;;;;;;4876846;29;20112;-68
2021/05/25 12:48:33;;;;;;;10.48;3.80;;;;;;;;;;4877873;29;20053;-70
2021/05/25 12:50:59;;;;;;;8.60;3.90;;;;;;;;;;4876617;29;20040;-64
2021/05/25 12:53:25;;;;;;;9.60;4.10;;;;;;;;;;4855791;29;20033;-73
2021/05/25 12:55:54;;;;;;;10.50;3.72;;;;;;;;;;4857384;29;20382;-72
2021/05/25 12:58:37;;;;;;;7.63;3.25;;;;;;;;;;4857073;29;20029;-71
2021/05/25 13:01:21;;;;;;;13.23;3.40;;;;;;;;;;4858185;29;20129;-64
2021/05/25 13:03:48;;;;;;;6.07;2.95;;;;;;;;;;4857352;29;20049;-72
2021/05/25 13:06:21;;;;;;;5.78;3.00;;;;;;;;;;4841283;29;20073;-73
2021/05/25 13:08:52;;;;;;;10.50;3.58;;;;;;;;;;4857877;29;20064;-70
2021/05/25 13:11:19;;;;;;;10.50;3.60;;;;;;;;;;4858031;29;20025;-68
2021/05/25 13:13:47;;;;;;;8.02;2.95;;;;;;;;;;4857985;29;20028;-64
2021/05/25 13:16:24;;;;;;;8.15;3.40;;;;;;;;;;4857696;29;20033;-68
2021/05/25 13:18:51;;;;;;;9.82;3.28;;;;;;;;;;4867817;29;20034;-72
2021/05/25 13:21:18;;;;;;;8.85;3.33;;;;;;;;;;4858392;29;20048;-70
2021/05/25 13:23:52;;;;;;;7.63;3.55;;;;;;;;;;4857449;29;20025;-73
2021/05/25 13:26:28;;;;;;;8.00;3.65;;;;;;;;;;4858241;29;20087;-75
2021/05/25 13:29:15;;;;;;;9.57;3.40;;;;;;;;;;4858095;29;20397;-71
2021/05/25 13:31:42;;;;;;;10.18;3.20;;;;;;;;;;4857883;29;20133;-63
2021/05/25 13:34:15;;;;;;;13.00;3.63;;;;;;;;;;4857744;29;20569;-73
2021/05/25 13:36:42;;;;;;;8.32;3.10;;;;;;;;;;4859858;29;20029;-73
2021/05/25 13:39:12;;;;;;;18.00;3.28;;;;;;;;;;4874190;29;20258;-64
2021/05/25 13:41:39;;;;;;;8.90;3.35;;;;;;;;;;4876083;29;20033;-69
2021/05/25 13:44:05;;;;;;;8.15;3.10;;;;;;;;;;4875721;29;20029;-67
2021/05/25 13:46:32;;;;;;;9.50;3.20;;;;;;;;;;4875960;29;20761;-72
2021/05/25 13:48:58;;;;;;;9.30;3.13;;;;;;;;;;4876223;29;20037;-69
2021/05/25 13:51:27;;;;;;;6.53;3.40;;;;;;;;;;4876650;29;20033;-70
2021/05/25 13:53:53;;;;;;;8.30;2.95;;;;;;;;;;4876054;29;20356;-72
2021/05/25 13:56:22;;;;;;;9.63;3.20;;;;;;;;;;4880217;29;20041;-67
2021/05/25 13:58:51;;;;;;;9.13;3.10;;;;;;;;;;4882327;29;20025;-68
2021/05/25 14:01:28;;;;;;;8.70;2.83;;;;;;;;;;4882001;29;20041;-71
2021/05/25 14:03:54;;;;;;;8.52;2.95;;;;;;;;;;4882015;29;20492;-72
2021/05/25 14:06:21;;;;;;;5.82;3.30;;;;;;;;;;4873316;29;20034;-73
2021/05/25 14:08:47;;;;;;;7.00;3.00;;;;;;;;;;4864091;29;20057;-73
2021/05/25 14:11:14;;;;;;;8.65;3.00;;;;;;;;;;4863728;29;20037;-73
2021/05/25 14:13:40;;;;;;;12.82;3.65;;;;;;;;;;4863703;29;20034;-65
2021/05/25 14:16:06;;;;;;;9.25;3.47;;;;;;;;;;4863726;29;20065;-64
2021/05/25 14:18:34;;;;;;;9.10;2.92;;;;;;;;;;4871042;29;20051;-75
2021/05/25 14:21:00;;;;;;;7.60;3.10;;;;;;;;;;4876804;29;20065;-65
2021/05/25 14:23:26;;;;;;;9.38;2.90;;;;;;;;;;4873413;29;20481;-72
2021/05/25 14:25:53;;;;;;;9.50;2.83;;;;;;;;;;4875079;29;20493;-70
2021/05/25 14:28:19;;;;;;;6.95;3.00;;;;;;;;;;4876258;29;20068;-72
2021/05/25 14:30:45;;;;;;;6.85;2.60;;;;;;;;;;4886194;29;20116;-67
2021/05/25 14:33:13;;;;;;;10.18;3.28;;;;;;;;;;4892038;29;20020;-66
2021/05/25 14:35:39;;;;;;;10.80;3.40;;;;;;;;;;4898173;29;20655;-66
2021/05/25 14:38:05;;;;;;;8.38;3.08;;;;;;;;;;4896019;29;20032;-70
2021/05/25 14:40:32;;;;;;;10.80;3.78;;;;;;;;;;4880995;29;20045;-71
2021/05/25 14:42:59;;;;;;;15.07;3.33;;;;;;;;;;4901395;29;20029;-67
2021/05/25 14:45:25;;;;;;;20.88;4.53;;;;;;;;;;4897037;29;20452;-68
2021/05/25 14:47:53;;;;;;;7.97;3.08;;;;;;;;;;4899756;29;20036;-69
2021/05/25 14:50:26;;;;;;;15.95;3.58;;;;;;;;;;4889760;29;20036;-69
2021/05/25 14:52:58;;;;;;;17.75;4.40;;;;;;;;;;4893311;29;20385;-69
2021/05/25 14:55:26;;;;;;;12.02;3.50;;;;;;;;;;4900151;29;20032;-70
2021/05/25 14:57:52;;;;;;;7.63;3.08;;;;;;;;;;4899825;29;20016;-69
2021/05/25 15:00:21;;;;;;;8.18;3.15;;;;;;;;;;4899641;29;20062;-65
2021/05/25 15:08:11;;;;;;;12.85;3.45;;;;;;;;;;4898558;29;20092;-70
2021/05/25 15:10:37;;;;;;;12.82;3.08;;;;;;;;;;4894181;29;20044;-71
2021/05/25 15:13:03;;;;;;;14.02;3.50;;;;;;;;;;4896221;29;20043;-66
2021/05/25 15:15:29;;;;;;;17.75;5.22;;;;;;;;;;4896277;29;21474;-67
2021/05/25 15:17:55;;;;;;;13.57;3.53;;;;;;;;;;4893991;29;20536;-71
2021/05/25 15:20:23;;;;;;;8.90;3.70;;;;;;;;;;4896312;29;20052;-70
2021/05/25 15:22:49;;;;;;;11.35;4.00;;;;;;;;;;4897458;29;20168;-68
2021/05/25 15:25:16;;;;;;;11.25;2.88;;;;;;;;;;4897584;29;20028;-65
2021/05/25 15:27:42;;;;;;;15.65;3.33;;;;;;;;;;4897088;29;20043;-69
2021/05/25 15:30:12;;;;;;;9.30;3.20;;;;;;;;;;4889379;29;20059;-65
2021/05/25 15:32:39;;;;;;;13.10;3.70;;;;;;;;;;4878664;29;20025;-67
2021/05/25 15:35:06;;;;;;;13.32;3.22;;;;;;;;;;4878375;29;20043;-70
2021/05/25 15:37:32;;;;;;;12.68;3.30;;;;;;;;;;4878796;29;20032;-69
2021/05/25 15:39:58;;;;;;;11.75;3.25;;;;;;;;;;4878131;29;20077;-64
2021/05/25 15:42:24;;;;;;;12.95;3.00;;;;;;;;;;4878276;29;20028;-67
2021/05/25 15:44:50;;;;;;;12.63;4.28;;;;;;;;;;4877875;29;20112;-72
2021/05/25 15:47:16;;;;;;;10.90;3.10;;;;;;;;;;4877843;29;20032;-65
2021/05/25 15:49:42;;;;;;;8.43;3.25;;;;;;;;;;4877652;29;20439;-66
2021/05/25 15:52:08;;;;;;;13.77;3.97;;;;;;;;;;4880237;29;20552;-69
2021/05/25 15:54:35;;;;;;;9.75;3.42;;;;;;;;;;4879000;29;20053;-65
2021/05/25 15:57:01;;;;;;;13.20;3.90;;;;;;;;;;4879791;29;20030;-68
2021/05/25 15:59:27;;;;;;;12.40;3.20;;;;;;;;;;4877856;29;20044;-66
2021/05/25 16:01:53;;;;;;;10.85;3.05;;;;;;;;;;4877965;29;20037;-65
2021/05/25 16:04:19;;;;;;;10.15;3.20;;;;;;;;;;4877997;29;20111;-71
2021/05/25 16:06:46;;;;;;;10.10;3.25;;;;;;;;;;4878298;29;20516;-64
2021/05/25 16:09:12;;;;;;;9.98;2.90;;;;;;;;;;4877542;29;20466;-69
2021/05/25 16:11:38;;;;;;;11.57;3.08;;;;;;;;;;4877399;29;20696;-69
2021/05/25 16:14:05;;;;;;;10.88;3.45;;;;;;;;;;4876778;29;20100;-69
2021/05/25 16:16:33;;;;;;;12.73;3.20;;;;;;;;;;4877780;29;20033;-67
2021/05/25 16:19:01;;;;;;;16.92;3.35;;;;;;;;;;4859779;29;20047;-68
2021/05/25 16:21:27;;;;;;;13.50;2.97;;;;;;;;;;4876560;29;20033;-69
2021/05/25 16:23:54;;;;;;;10.63;3.00;;;;;;;;;;4877263;29;20104;-65
2021/05/25 16:26:20;;;;;;;8.63;2.70;;;;;;;;;;4878267;29;20035;-70
2021/05/25 16:28:47;;;;;;;11.82;2.97;;;;;;;;;;4877410;29;20025;-67
2021/05/25 16:31:13;;;;;;;8.43;3.30;;;;;;;;;;4877887;29;20057;-69
2021/05/25 16:33:39;;;;;;;9.60;3.28;;;;;;;;;;4877302;29;20492;-70
2021/05/25 16:36:09;;;;;;;9.68;3.50;;;;;;;;;;4878063;29;20033;-68
2021/05/25 16:38:36;;;;;;;14.25;4.20;;;;;;;;;;4860427;29;20041;-69
2021/05/25 16:41:03;;;;;;;9.82;3.28;;;;;;;;;;4877338;29;20101;-67
2021/05/25 16:43:29;;;;;;;11.80;3.40;;;;;;;;;;4876498;29;20033;-65
2021/05/25 16:45:59;;;;;;;9.80;3.13;;;;;;;;;;4860960;29;20025;-68
2021/05/25 16:48:26;;;;;;;8.23;3.00;;;;;;;;;;4862205;29;20040;-65
2021/05/25 16:51:01;;;;;;;7.78;2.90;;;;;;;;;;4861984;29;20065;-64
2021/05/25 16:53:30;;;;;;;10.85;3.25;;;;;;;;;;4878113;29;20497;-69
2021/05/25 16:56:00;;;;;;;7.95;3.13;;;;;;;;;;4878935;29;20092;-65
2021/05/25 16:58:27;;;;;;;9.90;2.85;;;;;;;;;;4877778;29;20025;-65
2021/05/25 17:03:57;;;;;;;12.23;3.28;;;;;;;;;;4876014;29;20709;-67
2021/05/25 17:17:31;;;;;;;8.48;3.63;;;;;;;;;;4799893;29;20065;-66
2021/05/25 17:19:57;;;;;;;10.02;3.58;;;;;;;;;;4799587;29;20503;-64
2021/05/25 17:22:23;;;;;;;10.38;3.92;;;;;;;;;;4793744;29;20041;-67
2021/05/25 17:27:16;;;;;;;9.70;3.97;;;;;;;;;;4800091;29;20405;-65
2021/05/25 17:29:42;;;;;;;11.48;4.13;;;;;;;;;;4800401;29;20902;-67
2021/05/25 17:32:08;;;;;;;9.15;4.20;;;;;;;;;;4799653;29;20050;-65
2021/05/25 17:34:35;;;;;;;7.55;4.57;;;;;;;;;;4802243;29;20110;-65
2021/05/25 17:37:03;;;;;;;8.90;4.30;;;;;;;;;;4803285;29;20381;-68
2021/05/25 17:39:30;;;;;;;8.77;4.57;;;;;;;;;;4803207;29;20046;-67
2021/05/25 17:41:57;;;;;;;12.68;4.53;;;;;;;;;;4800450;29;20043;-64
2021/05/25 17:44:23;;;;;;;8.25;4.93;;;;;;;;;;4799996;29;20045;-63
2021/05/25 17:46:50;;;;;;;8.85;4.50;;;;;;;;;;4800232;29;20046;-68
2021/05/25 17:49:19;;;;;;;9.38;4.72;;;;;;;;;;4807621;29;20134;-68
2021/05/25 17:51:45;;;;;;;10.20;4.30;;;;;;;;;;4894652;29;20025;-64
2021/05/25 17:54:11;;;;;;;6.90;4.28;;;;;;;;;;4894724;29;20115;-65
2021/05/25 17:56:37;;;;;;;9.63;5.03;;;;;;;;;;4895334;29;20111;-66
2021/05/25 17:59:04;;;;;;;11.45;4.57;;;;;;;;;;4894887;29;20063;-67
2021/05/25 18:01:31;;;;;;;10.27;4.55;;;;;;;;;;4895256;29;20107;-67
2021/05/25 18:03:57;;;;;;;8.60;4.95;;;;;;;;;;4893569;29;20573;-69
2021/05/25 18:06:23;;;;;;;7.75;4.50;;;;;;;;;;4895395;29;20087;-70
2021/05/25 18:08:50;;;;;;;11.55;4.97;;;;;;;;;;4893896;29;20033;-66
2021/05/25 18:11:18;;;;;;;11.55;4.68;;;;;;;;;;4893197;29;20494;-65
2021/05/25 18:13:49;;;;;;;13.10;4.80;;;;;;;;;;4891204;29;20516;-66
2021/05/25 18:16:16;;;;;;;9.30;4.63;;;;;;;;;;4894703;29;20033;-67
2021/05/25 18:18:42;;;;;;;11.77;5.00;;;;;;;;;;4894460;29;20037;-68
2021/05/25 18:21:08;;;;;;;10.70;4.85;;;;;;;;;;4895071;29;20072;-69
2021/05/25 18:23:34;;;;;;;7.55;4.47;;;;;;;;;;4894593;29;20021;-68
2021/05/25 18:26:02;;;;;;;13.20;4.80;;;;;;;;;;4895213;29;20042;-67
2021/05/25 18:28:28;;;;;;;9.80;4.72;;;;;;;;;;4894977;29;20028;-65
2021/05/25 18:33:45;;;;;;;13.18;4.70;;;;;;;;;;4875435;29;20047;-69
2021/05/25 18:44:00;;;;;;;10.63;4.82;;;;;;;;;;4895426;29;20035;-64
2021/05/25 18:46:26;;;;;;;7.63;4.28;;;;;;;;;;4895708;29;20024;-66
2021/05/25 18:48:53;;;;;;;9.90;4.03;;;;;;;;;;4896227;29;20381;-65
2021/05/25 18:51:19;;;;;;;9.73;4.25;;;;;;;;;;4896673;29;20047;-63
2021/05/25 18:53:45;;;;;;;8.52;4.55;;;;;;;;;;4897289;29;20029;-66
2021/05/25 18:56:16;;;;;;;9.77;4.72;;;;;;;;;;4897747;29;20103;-63
2021/05/25 18:58:44;;;;;;;10.25;4.20;;;;;;;;;;4896890;29;20116;-63
2021/05/25 19:01:11;;;;;;;12.05;4.25;;;;;;;;;;4893030;29;20091;-65
2021/05/25 19:03:37;;;;;;;9.02;3.90;;;;;;;;;;4896719;29;20091;-63
2021/05/25 19:06:04;;;;;;;10.10;3.42;;;;;;;;;;4896833;29;20033;-66
2021/05/25 19:08:31;;;;;;;7.90;3.80;;;;;;;;;;4896485;29;20519;-62
2021/05/25 19:11:00;;;;;;;9.55;3.30;;;;;;;;;;4890232;29;20021;-65
2021/05/25 19:13:27;;;;;;;9.27;3.53;;;;;;;;;;4895963;29;20041;-71
2021/05/25 19:15:53;;;;;;;7.57;3.38;;;;;;;;;;4897126;29;20035;-63
2021/05/25 19:18:20;;;;;;;7.10;3.30;;;;;;;;;;4897501;29;20039;-66
2021/05/25 19:23:39;;;;;;;8.35;3.30;;;;;;;;;;4897653;29;20056;-69
2021/05/25 19:26:14;;;;;;;7.68;3.20;;;;;;;;;;4897772;29;20033;-76
2021/05/25 19:28:40;;;;;;;9.68;3.03;;;;;;;;;;4897687;29;20032;-75
2021/05/25 19:31:08;;;;;;;5.78;3.10;;;;;;;;;;4882519;29;20053;-73
2021/05/25 19:33:39;;;;;;;4.97;2.90;;;;;;;;;;4878565;29;20037;-65
2021/05/25 19:36:05;;;;;;;9.70;2.85;;;;;;;;;;4878280;29;20025;-67
2021/05/25 19:38:32;;;;;;;6.82;2.90;;;;;;;;;;4878775;29;20112;-74
2021/05/25 19:40:58;;;;;;;6.05;2.83;;;;;;;;;;4878180;29;20047;-74
2021/05/25 19:43:24;;;;;;;6.97;2.72;;;;;;;;;;4878461;29;20021;-75
2021/05/25 19:45:50;;;;;;;7.28;2.33;;;;;;;;;;4877891;29;20033;-70
2021/05/25 19:48:17;;;;;;;5.47;2.40;;;;;;;;;;4878666;29;20104;-67
2021/05/25 19:50:43;;;;;;;11.02;2.70;;;;;;;;;;4877207;29;20044;-68
2021/05/25 19:53:09;;;;;;;7.75;2.40;;;;;;;;;;4877176;29;20453;-74
2021/05/25 19:55:35;;;;;;;8.93;2.47;;;;;;;;;;4878055;29;20025;-63
2021/05/25 19:58:01;;;;;;;9.32;2.53;;;;;;;;;;4878056;29;20033;-70
2021/05/25 20:00:27;;;;;;;4.50;2.35;;;;;;;;;;4878020;29;20049;-74
2021/05/25 20:02:53;;;;;;;4.57;2.20;;;;;;;;;;4877994;29;20029;-72
2021/05/25 20:05:19;;;;;;;8.05;2.15;;;;;;;;;;4876821;29;20052;-65
2021/05/25 20:10:48;;;;;;;6.55;2.10;;;;;;;;;;4895098;23;20053;-62
2021/05/25 20:13:14;;;;;;;7.47;1.80;;;;;;;;;;4896352;29;20033;-69
2021/05/25 20:15:40;;;;;;;6.45;1.73;;;;;;;;;;4878609;29;20024;-63
2021/05/25 20:18:06;;;;;;;6.07;1.80;;;;;;;;;;4895610;29;20033;-75
2021/05/25 20:20:32;;;;;;;9.57;1.77;;;;;;;;;;4895199;29;20113;-65
2021/05/25 20:22:59;;;;;;;7.38;1.58;;;;;;;;;;4895772;29;20052;-62
2021/05/25 20:25:25;;;;;;;7.95;1.45;;;;;;;;;;4895857;29;20392;-63
2021/05/25 20:27:52;;;;;;;7.78;1.67;;;;;;;;;;4896213;29;20091;-68
2021/05/25 20:30:18;;;;;;;4.07;1.58;;;;;;;;;;4895172;29;20117;-63
2021/05/25 20:32:44;;;;;;;4.97;1.20;;;;;;;;;;4895841;29;20100;-74
2021/05/25 20:37:56;;;;;;;7.10;1.70;;;;;;;;;;4895168;29;20101;-62
2021/05/25 20:40:34;;;;;;;5.43;1.17;;;;;;;;;;4895528;29;20049;-74
2021/05/25 20:43:01;;;;;;;5.57;1.30;;;;;;;;;;4895665;29;20491;-61
2021/05/25 20:45:28;;;;;;;6.28;1.48;;;;;;;;;;4895642;29;20441;-65
2021/05/25 20:47:54;;;;;;;5.63;1.38;;;;;;;;;;4878755;29;20120;-67
2021/05/25 20:50:23;;;;;;;6.53;1.60;;;;;;;;;;4893679;29;20440;-66
2021/05/25 20:52:49;;;;;;;10.85;1.95;;;;;;;;;;4894710;29;20025;-68
2021/05/25 20:55:17;;;;;;;8.68;1.77;;;;;;;;;;4895408;29;20485;-69
2021/05/25 20:57:43;;;;;;;2.50;1.13;;;;;;;;;;4895260;29;20025;-75
2021/05/25 21:00:11;;;;;;;5.95;1.58;;;;;;;;;;4895341;29;20044;-71